Terminal Aerodrome Forecast
Issued by NWS

Home | Current Version | Previous Version | Text Only | Print | Product List | Glossary On
Versions: 1 2 3 4 5 6 7 8 9 10 11 12 13 14 15 16 17 18 19 20
431
FTUS41 KGYX 181120
TAFRKD
TAF
KRKD 181120Z 1812/1912 08010G18KT 2SM -SN BR OVC004
      TEMPO 1812/1816 4SM -SHSN OVC015
     FM182000 09010KT 5SM -SHSN BR OVC007
     FM190000 06007KT P6SM OVC012 PROB30 1900/1906 2SM -SHSN OVC009=

USA.gov is the U.S. government's official web portal to all federal, state and local government web resources and services.